sensor_id;sensor_type;location;lat;lon;timestamp;P1;durP1;ratioP1;P2;durP2;ratioP2
55784;SDS011;41709;52.536;5.688;2023-08-01T00:02:09;7.47;;;1.95;;
55784;SDS011;41709;52.536;5.688;2023-08-01T00:04:35;9.20;;;2.10;;
55784;SDS011;41709;52.536;5.688;2023-08-01T00:07:01;7.70;;;2.05;;
55784;SDS011;41709;52.536;5.688;2023-08-01T00:09:27;12.27;;;2.15;;
55784;SDS011;41709;52.536;5.688;2023-08-01T00:11:52;6.70;;;2.42;;
55784;SDS011;41709;52.536;5.688;2023-08-01T00:14:18;7.72;;;2.10;;
55784;SDS011;41709;52.536;5.688;2023-08-01T00:16:45;5.85;;;2.38;;
55784;SDS011;41709;52.536;5.688;2023-08-01T00:19:10;6.40;;;2.33;;
55784;SDS011;41709;52.536;5.688;2023-08-01T00:21:37;7.63;;;2.20;;
55784;SDS011;41709;52.536;5.688;2023-08-01T00:24:03;4.13;;;1.55;;
55784;SDS011;41709;52.536;5.688;2023-08-01T00:26:30;7.50;;;2.45;;
55784;SDS011;41709;52.536;5.688;2023-08-01T00:28:56;6.20;;;2.10;;
55784;SDS011;41709;52.536;5.688;2023-08-01T00:31:21;4.53;;;1.95;;
55784;SDS011;41709;52.536;5.688;2023-08-01T00:33:47;9.85;;;1.90;;
55784;SDS011;41709;52.536;5.688;2023-08-01T00:36:12;4.50;;;1.80;;
55784;SDS011;41709;52.536;5.688;2023-08-01T00:38:38;4.35;;;2.30;;
55784;SDS011;41709;52.536;5.688;2023-08-01T00:41:03;7.15;;;2.10;;
55784;SDS011;41709;52.536;5.688;2023-08-01T00:43:29;7.53;;;2.40;;
55784;SDS011;41709;52.536;5.688;2023-08-01T00:45:56;6.93;;;3.13;;
55784;SDS011;41709;52.536;5.688;2023-08-01T00:48:24;6.80;;;2.03;;
55784;SDS011;41709;52.536;5.688;2023-08-01T00:50:50;7.97;;;1.92;;
55784;SDS011;41709;52.536;5.688;2023-08-01T00:53:16;4.65;;;2.03;;
55784;SDS011;41709;52.536;5.688;2023-08-01T00:55:43;16.80;;;3.28;;
55784;SDS011;41709;52.536;5.688;2023-08-01T00:58:10;8.75;;;1.90;;
55784;SDS011;41709;52.536;5.688;2023-08-01T01:00:35;6.10;;;2.05;;
55784;SDS011;41709;52.536;5.688;2023-08-01T01:03:01;5.18;;;2.03;;
55784;SDS011;41709;52.536;5.688;2023-08-01T01:05:27;5.45;;;1.98;;
55784;SDS011;41709;52.536;5.688;2023-08-01T01:08:00;7.05;;;2.42;;
55784;SDS011;41709;52.536;5.688;2023-08-01T01:10:27;6.80;;;2.97;;
55784;SDS011;41709;52.536;5.688;2023-08-01T01:12:52;6.68;;;2.60;;
55784;SDS011;41709;52.536;5.688;2023-08-01T01:15:18;10.48;;;2.45;;
55784;SDS011;41709;52.536;5.688;2023-08-01T01:17:43;4.50;;;2.28;;
55784;SDS011;41709;52.536;5.688;2023-08-01T01:20:09;8.63;;;2.60;;
55784;SDS011;41709;52.536;5.688;2023-08-01T01:22:35;6.18;;;2.38;;
55784;SDS011;41709;52.536;5.688;2023-08-01T01:25:02;4.82;;;2.40;;
55784;SDS011;41709;52.536;5.688;2023-08-01T01:27:29;10.23;;;2.70;;
55784;SDS011;41709;52.536;5.688;2023-08-01T01:29:55;10.63;;;3.58;;
55784;SDS011;41709;52.536;5.688;2023-08-01T01:32:21;9.02;;;2.92;;
55784;SDS011;41709;52.536;5.688;2023-08-01T01:34:48;11.40;;;3.85;;
55784;SDS011;41709;52.536;5.688;2023-08-01T01:37:13;7.57;;;2.30;;
55784;SDS011;41709;52.536;5.688;2023-08-01T01:39:39;4.70;;;2.35;;
55784;SDS011;41709;52.536;5.688;2023-08-01T01:42:07;8.43;;;2.47;;
55784;SDS011;41709;52.536;5.688;2023-08-01T01:44:32;9.75;;;3.58;;
55784;SDS011;41709;52.536;5.688;2023-08-01T01:46:58;7.22;;;2.80;;
55784;SDS011;41709;52.536;5.688;2023-08-01T01:49:24;5.68;;;2.40;;
55784;SDS011;41709;52.536;5.688;2023-08-01T01:51:51;8.95;;;2.40;;
55784;SDS011;41709;52.536;5.688;2023-08-01T01:54:16;8.43;;;2.65;;
55784;SDS011;41709;52.536;5.688;2023-08-01T01:56:42;10.52;;;2.60;;
55784;SDS011;41709;52.536;5.688;2023-08-01T01:59:07;18.10;;;3.38;;
55784;SDS011;41709;52.536;5.688;2023-08-01T02:01:33;8.15;;;2.95;;
55784;SDS011;41709;52.536;5.688;2023-08-01T02:03:58;11.63;;;2.70;;
55784;SDS011;41709;52.536;5.688;2023-08-01T02:06:24;9.73;;;3.38;;
55784;SDS011;41709;52.536;5.688;2023-08-01T02:08:49;10.10;;;2.83;;
55784;SDS011;41709;52.536;5.688;2023-08-01T02:11:15;8.88;;;2.83;;
55784;SDS011;41709;52.536;5.688;2023-08-01T02:13:40;9.00;;;3.97;;
55784;SDS011;41709;52.536;5.688;2023-08-01T02:16:06;7.88;;;3.53;;
55784;SDS011;41709;52.536;5.688;2023-08-01T02:18:32;10.23;;;3.00;;
55784;SDS011;41709;52.536;5.688;2023-08-01T02:20:57;10.30;;;3.35;;
55784;SDS011;41709;52.536;5.688;2023-08-01T02:23:23;8.18;;;3.13;;
55784;SDS011;41709;52.536;5.688;2023-08-01T02:25:48;12.73;;;3.10;;
55784;SDS011;41709;52.536;5.688;2023-08-01T02:28:14;8.98;;;2.90;;
55784;SDS011;41709;52.536;5.688;2023-08-01T02:30:39;7.78;;;3.03;;
55784;SDS011;41709;52.536;5.688;2023-08-01T02:33:05;6.68;;;2.88;;
55784;SDS011;41709;52.536;5.688;2023-08-01T02:35:30;6.88;;;3.30;;
55784;SDS011;41709;52.536;5.688;2023-08-01T02:37:56;5.35;;;2.78;;
55784;SDS011;41709;52.536;5.688;2023-08-01T02:40:22;9.27;;;3.22;;
55784;SDS011;41709;52.536;5.688;2023-08-01T02:42:48;8.35;;;2.67;;
55784;SDS011;41709;52.536;5.688;2023-08-01T02:45:13;14.32;;;3.80;;
55784;SDS011;41709;52.536;5.688;2023-08-01T02:47:39;6.65;;;3.15;;
55784;SDS011;41709;52.536;5.688;2023-08-01T02:50:05;7.90;;;3.08;;
55784;SDS011;41709;52.536;5.688;2023-08-01T02:52:31;9.80;;;4.03;;
55784;SDS011;41709;52.536;5.688;2023-08-01T02:54:56;7.38;;;2.90;;
55784;SDS011;41709;52.536;5.688;2023-08-01T02:57:22;7.10;;;2.38;;
55784;SDS011;41709;52.536;5.688;2023-08-01T02:59:49;9.02;;;2.40;;
55784;SDS011;41709;52.536;5.688;2023-08-01T03:02:14;6.13;;;1.73;;
55784;SDS011;41709;52.536;5.688;2023-08-01T03:04:40;3.10;;;1.08;;
55784;SDS011;41709;52.536;5.688;2023-08-01T03:07:05;4.63;;;1.25;;
55784;SDS011;41709;52.536;5.688;2023-08-01T03:09:32;4.00;;;1.05;;
55784;SDS011;41709;52.536;5.688;2023-08-01T03:11:58;3.10;;;1.10;;
55784;SDS011;41709;52.536;5.688;2023-08-01T03:14:23;2.90;;;0.90;;
55784;SDS011;41709;52.536;5.688;2023-08-01T03:16:49;2.53;;;1.13;;
55784;SDS011;41709;52.536;5.688;2023-08-01T03:19:14;4.47;;;1.25;;
55784;SDS011;41709;52.536;5.688;2023-08-01T03:21:40;2.78;;;0.98;;
55784;SDS011;41709;52.536;5.688;2023-08-01T03:24:05;3.38;;;0.95;;
55784;SDS011;41709;52.536;5.688;2023-08-01T03:26:33;3.38;;;0.90;;
55784;SDS011;41709;52.536;5.688;2023-08-01T03:29:00;1.55;;;0.90;;
55784;SDS011;41709;52.536;5.688;2023-08-01T03:31:25;4.30;;;0.95;;
55784;SDS011;41709;52.536;5.688;2023-08-01T03:33:51;4.35;;;0.90;;
55784;SDS011;41709;52.536;5.688;2023-08-01T03:36:16;3.53;;;1.05;;
55784;SDS011;41709;52.536;5.688;2023-08-01T03:38:42;9.10;;;2.65;;
55784;SDS011;41709;52.536;5.688;2023-08-01T03:41:08;4.13;;;1.23;;
55784;SDS011;41709;52.536;5.688;2023-08-01T03:43:34;2.35;;;0.88;;
55784;SDS011;41709;52.536;5.688;2023-08-01T03:46:00;4.13;;;1.05;;
55784;SDS011;41709;52.536;5.688;2023-08-01T03:48:26;4.97;;;1.10;;
55784;SDS011;41709;52.536;5.688;2023-08-01T03:50:52;7.63;;;1.30;;
55784;SDS011;41709;52.536;5.688;2023-08-01T03:53:17;7.10;;;1.17;;
55784;SDS011;41709;52.536;5.688;2023-08-01T03:55:46;5.82;;;1.60;;
55784;SDS011;41709;52.536;5.688;2023-08-01T03:58:13;2.85;;;1.60;;
55784;SDS011;41709;52.536;5.688;2023-08-01T04:00:39;3.13;;;1.30;;
55784;SDS011;41709;52.536;5.688;2023-08-01T04:03:04;4.75;;;1.67;;
55784;SDS011;41709;52.536;5.688;2023-08-01T04:05:30;1.80;;;1.17;;
55784;SDS011;41709;52.536;5.688;2023-08-01T04:07:56;8.85;;;1.33;;
55784;SDS011;41709;52.536;5.688;2023-08-01T04:10:22;6.60;;;1.65;;
55784;SDS011;41709;52.536;5.688;2023-08-01T04:12:48;8.02;;;1.73;;
55784;SDS011;41709;52.536;5.688;2023-08-01T04:15:14;5.10;;;0.90;;
55784;SDS011;41709;52.536;5.688;2023-08-01T04:17:39;3.60;;;1.40;;
55784;SDS011;41709;52.536;5.688;2023-08-01T04:20:05;3.35;;;1.35;;
55784;SDS011;41709;52.536;5.688;2023-08-01T04:22:32;4.28;;;1.50;;
55784;SDS011;41709;52.536;5.688;2023-08-01T04:24:57;2.45;;;1.33;;
55784;SDS011;41709;52.536;5.688;2023-08-01T04:27:23;3.45;;;1.52;;
55784;SDS011;41709;52.536;5.688;2023-08-01T04:29:48;4.43;;;1.45;;
55784;SDS011;41709;52.536;5.688;2023-08-01T04:32:14;2.70;;;1.30;;
55784;SDS011;41709;52.536;5.688;2023-08-01T04:34:40;3.17;;;1.42;;
55784;SDS011;41709;52.536;5.688;2023-08-01T04:37:06;7.90;;;1.75;;
55784;SDS011;41709;52.536;5.688;2023-08-01T04:39:32;5.50;;;1.73;;
55784;SDS011;41709;52.536;5.688;2023-08-01T04:41:58;3.72;;;1.40;;
55784;SDS011;41709;52.536;5.688;2023-08-01T04:44:24;15.30;;;1.90;;
55784;SDS011;41709;52.536;5.688;2023-08-01T04:46:49;6.70;;;1.33;;
55784;SDS011;41709;52.536;5.688;2023-08-01T04:49:15;5.60;;;1.27;;
55784;SDS011;41709;52.536;5.688;2023-08-01T04:51:41;2.70;;;0.98;;
55784;SDS011;41709;52.536;5.688;2023-08-01T04:54:06;9.27;;;1.15;;
55784;SDS011;41709;52.536;5.688;2023-08-01T04:56:32;1.90;;;0.55;;
55784;SDS011;41709;52.536;5.688;2023-08-01T04:58:57;1.55;;;0.60;;
55784;SDS011;41709;52.536;5.688;2023-08-01T05:01:23;2.40;;;0.73;;
55784;SDS011;41709;52.536;5.688;2023-08-01T05:03:48;0.93;;;0.43;;
55784;SDS011;41709;52.536;5.688;2023-08-01T05:06:14;2.28;;;0.90;;
55784;SDS011;41709;52.536;5.688;2023-08-01T05:08:40;2.75;;;1.42;;
55784;SDS011;41709;52.536;5.688;2023-08-01T05:11:05;2.60;;;1.27;;
55784;SDS011;41709;52.536;5.688;2023-08-01T05:13:31;4.25;;;0.80;;
55784;SDS011;41709;52.536;5.688;2023-08-01T05:15:56;5.47;;;0.90;;
55784;SDS011;41709;52.536;5.688;2023-08-01T05:18:22;3.38;;;1.15;;
55784;SDS011;41709;52.536;5.688;2023-08-01T05:20:47;3.83;;;1.30;;
55784;SDS011;41709;52.536;5.688;2023-08-01T05:23:13;5.20;;;1.40;;
55784;SDS011;41709;52.536;5.688;2023-08-01T05:25:39;4.50;;;1.60;;
55784;SDS011;41709;52.536;5.688;2023-08-01T05:28:04;2.78;;;1.40;;
55784;SDS011;41709;52.536;5.688;2023-08-01T05:30:30;6.20;;;1.77;;
55784;SDS011;41709;52.536;5.688;2023-08-01T05:32:55;6.05;;;1.83;;
55784;SDS011;41709;52.536;5.688;2023-08-01T05:35:21;8.27;;;1.98;;
55784;SDS011;41709;52.536;5.688;2023-08-01T05:37:46;6.13;;;1.85;;
55784;SDS011;41709;52.536;5.688;2023-08-01T05:40:12;5.90;;;2.10;;
55784;SDS011;41709;52.536;5.688;2023-08-01T05:42:38;8.35;;;2.40;;
55784;SDS011;41709;52.536;5.688;2023-08-01T05:45:03;8.55;;;2.72;;
55784;SDS011;41709;52.536;5.688;2023-08-01T05:47:30;11.07;;;2.30;;
55784;SDS011;41709;52.536;5.688;2023-08-01T05:49:55;5.10;;;2.22;;
55784;SDS011;41709;52.536;5.688;2023-08-01T05:52:21;13.32;;;3.00;;
55784;SDS011;41709;52.536;5.688;2023-08-01T05:54:47;11.80;;;3.00;;
55784;SDS011;41709;52.536;5.688;2023-08-01T05:57:13;9.02;;;2.85;;
55784;SDS011;41709;52.536;5.688;2023-08-01T05:59:38;8.90;;;2.67;;
55784;SDS011;41709;52.536;5.688;2023-08-01T06:02:04;11.27;;;3.00;;
55784;SDS011;41709;52.536;5.688;2023-08-01T06:04:30;8.88;;;3.05;;
55784;SDS011;41709;52.536;5.688;2023-08-01T06:06:56;10.70;;;3.20;;
55784;SDS011;41709;52.536;5.688;2023-08-01T06:09:22;7.00;;;3.03;;
55784;SDS011;41709;52.536;5.688;2023-08-01T06:11:47;10.60;;;3.13;;
55784;SDS011;41709;52.536;5.688;2023-08-01T06:14:13;9.18;;;2.70;;
55784;SDS011;41709;52.536;5.688;2023-08-01T06:16:39;14.48;;;4.22;;
55784;SDS011;41709;52.536;5.688;2023-08-01T06:19:04;11.18;;;3.50;;
55784;SDS011;41709;52.536;5.688;2023-08-01T06:24:05;14.43;;;4.03;;
55784;SDS011;41709;52.536;5.688;2023-08-01T06:26:32;11.52;;;4.15;;
55784;SDS011;41709;52.536;5.688;2023-08-01T06:28:58;8.73;;;2.63;;
55784;SDS011;41709;52.536;5.688;2023-08-01T06:31:23;8.43;;;2.20;;
55784;SDS011;41709;52.536;5.688;2023-08-01T06:33:49;12.73;;;3.03;;
55784;SDS011;41709;52.536;5.688;2023-08-01T06:36:15;7.35;;;2.30;;
55784;SDS011;41709;52.536;5.688;2023-08-01T06:38:42;7.10;;;2.42;;
55784;SDS011;41709;52.536;5.688;2023-08-01T06:41:08;9.00;;;2.60;;
55784;SDS011;41709;52.536;5.688;2023-08-01T06:43:33;10.52;;;2.90;;
55784;SDS011;41709;52.536;5.688;2023-08-01T06:45:59;6.28;;;2.42;;
55784;SDS011;41709;52.536;5.688;2023-08-01T06:48:24;7.97;;;2.60;;
55784;SDS011;41709;52.536;5.688;2023-08-01T06:50:50;10.02;;;2.60;;
55784;SDS011;41709;52.536;5.688;2023-08-01T06:53:16;11.98;;;3.05;;
55784;SDS011;41709;52.536;5.688;2023-08-01T06:55:42;9.65;;;2.38;;
55784;SDS011;41709;52.536;5.688;2023-08-01T06:58:07;10.60;;;3.42;;
55784;SDS011;41709;52.536;5.688;2023-08-01T07:00:33;9.43;;;2.33;;
55784;SDS011;41709;52.536;5.688;2023-08-01T07:02:58;9.73;;;3.38;;
55784;SDS011;41709;52.536;5.688;2023-08-01T07:05:24;8.77;;;2.70;;
55784;SDS011;41709;52.536;5.688;2023-08-01T07:07:50;10.68;;;2.60;;
55784;SDS011;41709;52.536;5.688;2023-08-01T07:10:15;5.90;;;2.28;;
55784;SDS011;41709;52.536;5.688;2023-08-01T07:12:41;7.28;;;1.98;;
55784;SDS011;41709;52.536;5.688;2023-08-01T07:15:07;6.28;;;2.13;;
55784;SDS011;41709;52.536;5.688;2023-08-01T07:17:33;6.63;;;1.73;;
55784;SDS011;41709;52.536;5.688;2023-08-01T07:19:58;10.40;;;2.47;;
55784;SDS011;41709;52.536;5.688;2023-08-01T07:22:24;7.55;;;2.03;;
55784;SDS011;41709;52.536;5.688;2023-08-01T07:24:53;6.43;;;2.10;;
55784;SDS011;41709;52.536;5.688;2023-08-01T07:27:19;6.55;;;2.05;;
55784;SDS011;41709;52.536;5.688;2023-08-01T07:29:46;7.72;;;2.20;;
55784;SDS011;41709;52.536;5.688;2023-08-01T07:32:11;8.30;;;2.47;;
55784;SDS011;41709;52.536;5.688;2023-08-01T07:34:37;8.90;;;2.45;;
55784;SDS011;41709;52.536;5.688;2023-08-01T07:37:02;7.65;;;2.00;;
55784;SDS011;41709;52.536;5.688;2023-08-01T07:39:28;10.70;;;2.00;;
55784;SDS011;41709;52.536;5.688;2023-08-01T07:41:55;7.30;;;2.10;;
55784;SDS011;41709;52.536;5.688;2023-08-01T07:44:21;7.88;;;2.42;;
55784;SDS011;41709;52.536;5.688;2023-08-01T07:46:46;12.15;;;2.60;;
55784;SDS011;41709;52.536;5.688;2023-08-01T07:49:12;11.23;;;2.28;;
55784;SDS011;41709;52.536;5.688;2023-08-01T07:51:38;9.88;;;2.45;;
55784;SDS011;41709;52.536;5.688;2023-08-01T07:54:03;10.65;;;2.20;;
55784;SDS011;41709;52.536;5.688;2023-08-01T07:56:29;5.85;;;1.98;;
55784;SDS011;41709;52.536;5.688;2023-08-01T07:58:54;9.13;;;2.28;;
55784;SDS011;41709;52.536;5.688;2023-08-01T08:01:20;10.50;;;2.65;;
55784;SDS011;41709;52.536;5.688;2023-08-01T08:03:46;9.18;;;3.03;;
55784;SDS011;41709;52.536;5.688;2023-08-01T08:06:11;7.28;;;2.05;;
55784;SDS011;41709;52.536;5.688;2023-08-01T08:08:37;9.48;;;2.40;;
55784;SDS011;41709;52.536;5.688;2023-08-01T08:11:03;8.93;;;2.70;;
55784;SDS011;41709;52.536;5.688;2023-08-01T08:13:28;9.35;;;2.13;;
55784;SDS011;41709;52.536;5.688;2023-08-01T08:15:55;8.45;;;1.73;;
55784;SDS011;41709;52.536;5.688;2023-08-01T08:18:21;6.97;;;2.15;;
55784;SDS011;41709;52.536;5.688;2023-08-01T08:20:47;7.45;;;2.22;;
55784;SDS011;41709;52.536;5.688;2023-08-01T08:23:13;10.18;;;2.08;;
55784;SDS011;41709;52.536;5.688;2023-08-01T08:25:42;6.03;;;2.10;;
55784;SDS011;41709;52.536;5.688;2023-08-01T08:28:12;6.20;;;2.15;;
55784;SDS011;41709;52.536;5.688;2023-08-01T08:30:38;6.85;;;2.38;;
55784;SDS011;41709;52.536;5.688;2023-08-01T08:33:04;5.95;;;1.55;;
55784;SDS011;41709;52.536;5.688;2023-08-01T08:35:31;6.22;;;2.13;;
55784;SDS011;41709;52.536;5.688;2023-08-01T08:38:01;7.10;;;2.10;;
55784;SDS011;41709;52.536;5.688;2023-08-01T08:40:29;8.00;;;2.40;;
55784;SDS011;41709;52.536;5.688;2023-08-01T08:42:56;8.27;;;2.35;;
55784;SDS011;41709;52.536;5.688;2023-08-01T08:45:26;7.20;;;2.58;;
55784;SDS011;41709;52.536;5.688;2023-08-01T08:47:55;5.13;;;1.95;;
55784;SDS011;41709;52.536;5.688;2023-08-01T08:50:26;7.43;;;2.58;;
55784;SDS011;41709;52.536;5.688;2023-08-01T08:52:54;6.55;;;1.73;;
55784;SDS011;41709;52.536;5.688;2023-08-01T08:55:20;9.77;;;2.33;;
55784;SDS011;41709;52.536;5.688;2023-08-01T08:57:48;4.90;;;1.52;;
55784;SDS011;41709;52.536;5.688;2023-08-01T09:00:17;5.78;;;1.55;;
55784;SDS011;41709;52.536;5.688;2023-08-01T09:02:44;7.90;;;1.50;;
55784;SDS011;41709;52.536;5.688;2023-08-01T09:05:09;9.85;;;1.33;;
55784;SDS011;41709;52.536;5.688;2023-08-01T09:07:35;9.07;;;1.55;;
55784;SDS011;41709;52.536;5.688;2023-08-01T09:10:06;6.72;;;1.90;;
55784;SDS011;41709;52.536;5.688;2023-08-01T09:12:35;6.95;;;1.42;;
55784;SDS011;41709;52.536;5.688;2023-08-01T09:15:01;6.55;;;1.45;;
55784;SDS011;41709;52.536;5.688;2023-08-01T09:17:26;5.97;;;1.33;;
55784;SDS011;41709;52.536;5.688;2023-08-01T09:19:56;3.83;;;1.23;;
55784;SDS011;41709;52.536;5.688;2023-08-01T09:22:40;6.25;;;1.50;;
55784;SDS011;41709;52.536;5.688;2023-08-01T09:25:10;5.68;;;1.80;;
55784;SDS011;41709;52.536;5.688;2023-08-01T09:27:36;7.55;;;2.28;;
55784;SDS011;41709;52.536;5.688;2023-08-01T09:30:12;10.75;;;2.55;;
55784;SDS011;41709;52.536;5.688;2023-08-01T09:32:50;7.05;;;1.73;;
55784;SDS011;41709;52.536;5.688;2023-08-01T09:35:17;5.53;;;1.63;;
55784;SDS011;41709;52.536;5.688;2023-08-01T09:37:43;10.93;;;2.10;;
55784;SDS011;41709;52.536;5.688;2023-08-01T09:40:09;10.93;;;2.17;;
55784;SDS011;41709;52.536;5.688;2023-08-01T09:42:38;6.47;;;1.05;;
55784;SDS011;41709;52.536;5.688;2023-08-01T09:45:17;3.67;;;1.02;;
55784;SDS011;41709;52.536;5.688;2023-08-01T09:47:43;5.40;;;1.10;;
55784;SDS011;41709;52.536;5.688;2023-08-01T09:50:10;4.72;;;1.58;;
55784;SDS011;41709;52.536;5.688;2023-08-01T09:52:38;5.47;;;1.30;;
55784;SDS011;41709;52.536;5.688;2023-08-01T09:55:04;2.45;;;0.90;;
55784;SDS011;41709;52.536;5.688;2023-08-01T09:57:30;3.97;;;1.00;;
55784;SDS011;41709;52.536;5.688;2023-08-01T09:59:56;3.92;;;1.30;;
55784;SDS011;41709;52.536;5.688;2023-08-01T10:02:24;4.05;;;1.15;;
55784;SDS011;41709;52.536;5.688;2023-08-01T10:04:52;5.20;;;0.98;;
55784;SDS011;41709;52.536;5.688;2023-08-01T10:07:20;4.05;;;1.35;;
55784;SDS011;41709;52.536;5.688;2023-08-01T10:09:49;9.70;;;1.95;;
55784;SDS011;41709;52.536;5.688;2023-08-01T10:12:15;4.95;;;1.50;;
55784;SDS011;41709;52.536;5.688;2023-08-01T10:14:43;8.73;;;1.67;;
55784;SDS011;41709;52.536;5.688;2023-08-01T10:17:10;7.82;;;2.00;;
55784;SDS011;41709;52.536;5.688;2023-08-01T10:19:36;5.13;;;1.42;;
55784;SDS011;41709;52.536;5.688;2023-08-01T10:22:03;6.88;;;2.08;;
55784;SDS011;41709;52.536;5.688;2023-08-01T10:24:31;6.38;;;2.08;;
55784;SDS011;41709;52.536;5.688;2023-08-01T10:26:57;6.70;;;1.80;;
55784;SDS011;41709;52.536;5.688;2023-08-01T10:29:36;5.95;;;1.42;;
55784;SDS011;41709;52.536;5.688;2023-08-01T10:32:02;8.32;;;1.30;;
55784;SDS011;41709;52.536;5.688;2023-08-01T10:34:28;7.13;;;1.42;;
55784;SDS011;41709;52.536;5.688;2023-08-01T10:36:54;9.23;;;1.83;;
55784;SDS011;41709;52.536;5.688;2023-08-01T10:39:21;8.57;;;1.65;;
55784;SDS011;41709;52.536;5.688;2023-08-01T10:41:55;7.93;;;1.85;;
55784;SDS011;41709;52.536;5.688;2023-08-01T10:44:25;7.65;;;2.10;;
55784;SDS011;41709;52.536;5.688;2023-08-01T10:49:19;8.82;;;2.50;;
55784;SDS011;41709;52.536;5.688;2023-08-01T10:51:49;9.80;;;2.20;;
55784;SDS011;41709;52.536;5.688;2023-08-01T10:54:21;18.05;;;2.50;;
55784;SDS011;41709;52.536;5.688;2023-08-01T10:56:48;5.65;;;1.98;;
55784;SDS011;41709;52.536;5.688;2023-08-01T10:59:15;9.15;;;1.92;;
55784;SDS011;41709;52.536;5.688;2023-08-01T11:01:45;6.63;;;1.80;;
55784;SDS011;41709;52.536;5.688;2023-08-01T11:04:18;6.68;;;1.50;;
55784;SDS011;41709;52.536;5.688;2023-08-01T11:06:46;4.60;;;1.67;;
55784;SDS011;41709;52.536;5.688;2023-08-01T11:09:17;7.03;;;1.65;;
55784;SDS011;41709;52.536;5.688;2023-08-01T11:11:56;3.60;;;1.30;;
55784;SDS011;41709;52.536;5.688;2023-08-01T11:14:24;6.68;;;1.40;;
55784;SDS011;41709;52.536;5.688;2023-08-01T11:16:53;4.45;;;1.15;;
55784;SDS011;41709;52.536;5.688;2023-08-01T11:19:24;6.90;;;1.25;;
55784;SDS011;41709;52.536;5.688;2023-08-01T11:21:53;6.28;;;1.35;;
55784;SDS011;41709;52.536;5.688;2023-08-01T11:24:25;9.80;;;1.83;;
55784;SDS011;41709;52.536;5.688;2023-08-01T11:26:51;4.43;;;1.50;;
55784;SDS011;41709;52.536;5.688;2023-08-01T11:29:18;7.30;;;2.33;;
55784;SDS011;41709;52.536;5.688;2023-08-01T11:31:51;5.70;;;1.85;;
55784;SDS011;41709;52.536;5.688;2023-08-01T11:34:18;7.18;;;2.20;;
55784;SDS011;41709;52.536;5.688;2023-08-01T11:36:44;5.82;;;2.08;;
55784;SDS011;41709;52.536;5.688;2023-08-01T11:39:11;6.20;;;1.77;;
55784;SDS011;41709;52.536;5.688;2023-08-01T11:41:37;4.82;;;1.50;;
55784;SDS011;41709;52.536;5.688;2023-08-01T11:44:04;9.52;;;1.60;;
55784;SDS011;41709;52.536;5.688;2023-08-01T11:46:36;10.25;;;2.03;;
55784;SDS011;41709;52.536;5.688;2023-08-01T11:49:03;11.00;;;1.85;;
55784;SDS011;41709;52.536;5.688;2023-08-01T11:51:30;5.55;;;1.27;;
55784;SDS011;41709;52.536;5.688;2023-08-01T11:54:04;5.10;;;1.13;;
55784;SDS011;41709;52.536;5.688;2023-08-01T11:56:30;4.78;;;1.60;;
55784;SDS011;41709;52.536;5.688;2023-08-01T11:58:56;7.57;;;2.25;;
55784;SDS011;41709;52.536;5.688;2023-08-01T12:01:23;3.00;;;1.15;;
55784;SDS011;41709;52.536;5.688;2023-08-01T12:03:50;4.70;;;1.55;;
55784;SDS011;41709;52.536;5.688;2023-08-01T12:06:17;4.82;;;1.20;;
55784;SDS011;41709;52.536;5.688;2023-08-01T12:08:46;7.25;;;1.45;;
55784;SDS011;41709;52.536;5.688;2023-08-01T12:13:45;5.32;;;1.58;;
55784;SDS011;41709;52.536;5.688;2023-08-01T12:16:11;7.22;;;1.33;;
55784;SDS011;41709;52.536;5.688;2023-08-01T12:18:38;4.85;;;1.08;;
55784;SDS011;41709;52.536;5.688;2023-08-01T12:21:04;4.10;;;1.58;;
55784;SDS011;41709;52.536;5.688;2023-08-01T12:23:30;6.35;;;1.80;;
55784;SDS011;41709;52.536;5.688;2023-08-01T12:25:56;3.85;;;1.10;;
55784;SDS011;41709;52.536;5.688;2023-08-01T12:28:22;4.18;;;1.38;;
55784;SDS011;41709;52.536;5.688;2023-08-01T12:30:47;3.30;;;1.00;;
55784;SDS011;41709;52.536;5.688;2023-08-01T12:33:13;3.33;;;1.10;;
55784;SDS011;41709;52.536;5.688;2023-08-01T12:35:39;4.95;;;1.60;;
55784;SDS011;41709;52.536;5.688;2023-08-01T12:38:06;2.97;;;1.13;;
55784;SDS011;41709;52.536;5.688;2023-08-01T12:40:33;8.73;;;1.70;;
55784;SDS011;41709;52.536;5.688;2023-08-01T12:42:58;4.65;;;1.63;;
55784;SDS011;41709;52.536;5.688;2023-08-01T12:45:24;4.85;;;1.30;;
55784;SDS011;41709;52.536;5.688;2023-08-01T12:47:49;4.40;;;1.08;;
55784;SDS011;41709;52.536;5.688;2023-08-01T12:50:15;9.90;;;1.83;;
55784;SDS011;41709;52.536;5.688;2023-08-01T12:52:41;5.40;;;1.40;;
55784;SDS011;41709;52.536;5.688;2023-08-01T12:55:07;6.93;;;1.70;;
55784;SDS011;41709;52.536;5.688;2023-08-01T12:57:33;5.95;;;1.67;;
55784;SDS011;41709;52.536;5.688;2023-08-01T12:59:59;7.05;;;1.95;;
55784;SDS011;41709;52.536;5.688;2023-08-01T13:02:26;6.43;;;1.40;;
55784;SDS011;41709;52.536;5.688;2023-08-01T13:04:51;6.10;;;1.42;;
55784;SDS011;41709;52.536;5.688;2023-08-01T13:07:17;6.47;;;1.88;;
55784;SDS011;41709;52.536;5.688;2023-08-01T13:09:42;4.32;;;1.40;;
55784;SDS011;41709;52.536;5.688;2023-08-01T13:12:08;5.20;;;1.33;;
55784;SDS011;41709;52.536;5.688;2023-08-01T13:14:33;4.10;;;1.33;;
55784;SDS011;41709;52.536;5.688;2023-08-01T13:16:59;11.90;;;2.88;;
55784;SDS011;41709;52.536;5.688;2023-08-01T13:19:25;6.75;;;1.48;;
55784;SDS011;41709;52.536;5.688;2023-08-01T13:21:51;2.65;;;1.05;;
55784;SDS011;41709;52.536;5.688;2023-08-01T13:24:16;5.32;;;1.30;;
55784;SDS011;41709;52.536;5.688;2023-08-01T13:26:42;3.33;;;0.93;;
55784;SDS011;41709;52.536;5.688;2023-08-01T13:29:07;2.35;;;0.98;;
55784;SDS011;41709;52.536;5.688;2023-08-01T13:31:33;5.70;;;1.33;;
55784;SDS011;41709;52.536;5.688;2023-08-01T13:33:59;3.45;;;1.05;;
55784;SDS011;41709;52.536;5.688;2023-08-01T13:36:24;5.78;;;1.08;;
55784;SDS011;41709;52.536;5.688;2023-08-01T13:38:50;3.72;;;0.90;;
55784;SDS011;41709;52.536;5.688;2023-08-01T13:41:15;5.82;;;1.00;;
55784;SDS011;41709;52.536;5.688;2023-08-01T13:43:41;1.95;;;0.70;;
55784;SDS011;41709;52.536;5.688;2023-08-01T13:46:14;2.15;;;0.57;;
55784;SDS011;41709;52.536;5.688;2023-08-01T13:48:44;2.83;;;0.80;;
55784;SDS011;41709;52.536;5.688;2023-08-01T13:51:11;6.30;;;0.70;;
55784;SDS011;41709;52.536;5.688;2023-08-01T13:53:37;2.50;;;0.85;;
55784;SDS011;41709;52.536;5.688;2023-08-01T13:56:06;3.72;;;1.10;;
55784;SDS011;41709;52.536;5.688;2023-08-01T13:58:32;4.13;;;0.80;;
55784;SDS011;41709;52.536;5.688;2023-08-01T14:01:01;2.30;;;0.80;;
55784;SDS011;41709;52.536;5.688;2023-08-01T14:03:28;8.63;;;0.90;;
55784;SDS011;41709;52.536;5.688;2023-08-01T14:05:55;5.25;;;1.45;;
55784;SDS011;41709;52.536;5.688;2023-08-01T14:08:21;2.55;;;0.60;;
55784;SDS011;41709;52.536;5.688;2023-08-01T14:10:47;2.08;;;0.70;;
55784;SDS011;41709;52.536;5.688;2023-08-01T14:13:12;1.40;;;0.43;;
55784;SDS011;41709;52.536;5.688;2023-08-01T14:15:38;1.83;;;0.75;;
55784;SDS011;41709;52.536;5.688;2023-08-01T14:18:03;3.17;;;1.15;;
55784;SDS011;41709;52.536;5.688;2023-08-01T14:20:29;5.75;;;1.23;;
55784;SDS011;41709;52.536;5.688;2023-08-01T14:22:54;4.47;;;0.60;;
55784;SDS011;41709;52.536;5.688;2023-08-01T14:25:20;1.48;;;0.45;;
55784;SDS011;41709;52.536;5.688;2023-08-01T14:27:45;1.85;;;0.77;;
55784;SDS011;41709;52.536;5.688;2023-08-01T14:30:11;3.40;;;0.75;;
55784;SDS011;41709;52.536;5.688;2023-08-01T14:32:37;4.43;;;1.38;;
55784;SDS011;41709;52.536;5.688;2023-08-01T14:35:04;2.08;;;1.13;;
55784;SDS011;41709;52.536;5.688;2023-08-01T14:37:30;4.18;;;0.95;;
55784;SDS011;41709;52.536;5.688;2023-08-01T14:39:55;3.83;;;0.77;;
55784;SDS011;41709;52.536;5.688;2023-08-01T14:42:21;5.22;;;1.15;;
55784;SDS011;41709;52.536;5.688;2023-08-01T14:44:51;3.47;;;1.50;;
55784;SDS011;41709;52.536;5.688;2023-08-01T14:47:18;5.10;;;1.08;;
55784;SDS011;41709;52.536;5.688;2023-08-01T14:49:44;3.00;;;1.00;;